• Join FlightAware (Why Join?)
  • Login
  • US Flag 
 
01:08PM EST


 

Airport Tracker/Info


-or-


 

Live Flight TrackerFlight Track Log ✈ UPS1301 ✈ 12-Jun-2013 ✈ KATL - KSDF

Flight Track Log - Related Links

Times and Time Zones

All times are in EDT time to prevent confusion due to time zone crossing. See the UPS1301 flight status page for this flight to view local times or setup timezone preferences in your user account.

Time Position Orientation Groundspeed Altitude Reporting Facility
EDT Latitude Longitude Course Direction KTS MPH feet Rate Location/Type
10:53PM 33.6530 -84.4190 208° Southwest 14 16  Level FlightAware
10:54PM 33.6520 -84.4190 180° South 22 25 180 Level FlightAware
10:54PM 33.6510 -84.4190 180° South 25 29 240 Level FlightAware
10:55PM 33.6510 -84.4180 90° East 28 32 240 Level FlightAware
10:55PM 33.6510 -84.4170 90° East 31 36 240 Level FlightAware
10:56PM 33.6510 -84.4150 90° East 16 18 240 Level FlightAware
10:56PM 33.6510 -84.4130 90° East 16 18 300 Level FlightAware
10:56PM 33.6510 -84.4120 90° East 34 39 300 Level FlightAware
10:57PM 33.6510 -84.4100 90° East 16 18 300 Level FlightAware
10:57PM 33.6500 -84.4100 180° South 19 22 360 Level FlightAware
10:58PM 33.6480 -84.4080 140° Southeast 25 29 360 Level FlightAware
10:59PM 33.6480 -84.4060 90° East 26 30 540 Level FlightAware
11:00PM 33.6470 -84.4060 180° South 18 21 600 Level FlightAware
11:01PM 33.6470 -84.4090 270° West 76 87 1,200 Level FlightAware
11:01PM 33.6470 -84.4320 270° West 146 168 1,800 2,760 Climbing FlightAware
11:02PM 33.6480 -84.4530 273° West 157 181 2,600 1,260 Climbing FlightAware
11:02PM 33.6490 -84.4680 275° West 176 203 2,700 1,320 Climbing FlightAware
11:03PM 33.6500 -84.4980 272° West 198 228 3,600 2,340 Climbing FlightAware
11:03PM 33.6520 -84.5290 274° West 212 244 4,900 2,220 Climbing FlightAware
11:04PM 33.6570 -84.5670 279° West 258 297 5,700 1,920 Climbing FlightAware
11:04PM 33.6640 -84.5830 298° West 269 310 6,200 2,760 Climbing FlightAware
11:04PM 33.6800 -84.5970 324° Northwest 279 321 7,000 3,000 Climbing FlightAware
11:04PM 33.6950 -84.6030 342° North 284 327 7,600 3,000 Climbing FlightAware
11:05PM 33.7330 -84.6000 North 294 338 9,000 2,520 Climbing FlightAware
11:05PM 33.7820 -84.5930 North 311 358 10,600 1,740 Climbing FlightAware
11:06PM 33.8150 -84.5930 360° North 336 387 11,100 2,100 Climbing FlightAware
11:07PM 33.9090 -84.5950 359° North 373 429 13,100 2,760 Climbing FlightAware
11:08PM 34.0070 -84.5950 360° North 382 440 15,700 2,760 Climbing FlightAware
11:08PM 34.0649 -84.5967 359° North 383 441 17,200 2,760 Climbing FlightAware ADS-B
11:09PM 34.1183 -84.6012 356° North 384 442 18,600 2,520 Climbing FlightAware ADS-B
11:09PM 34.1734 -84.6066 355° North 387 445 19,800 2,160 Climbing FlightAware ADS-B
11:10PM 34.2404 -84.6130 355° North 396 456 21,100 2,040 Climbing FlightAware ADS-B
11:10PM 34.2997 -84.6185 356° North 404 465 22,200 1,920 Climbing FlightAware ADS-B
11:11PM 34.3564 -84.6238 356° North 412 474 23,100 1,860 Climbing FlightAware ADS-B
11:11PM 34.4149 -84.6293 356° North 419 482 24,100 1,860 Climbing FlightAware ADS-B
11:12PM 34.4755 -84.6350 356° North 425 489 25,000 1,740 Climbing FlightAware ADS-B
11:12PM 34.5368 -84.6408 356° North 431 496 25,900 1,980 Climbing FlightAware ADS-B
11:13PM 34.5982 -84.6466 356° North 430 495 27,100 2,220 Climbing FlightAware ADS-B
11:13PM 34.6587 -84.6523 356° North 429 494 28,200 2,280 Climbing FlightAware ADS-B
11:14PM 34.7229 -84.6583 356° North 428 493 29,500 1,620 Climbing FlightAware ADS-B
11:14PM 34.7895 -84.6647 355° North 428 493 30,000 360 Climbing FlightAware ADS-B
11:15PM 34.8864 -84.6739 356° North 427 491 30,000  Level FlightAware ADS-B
11:16PM 34.9463 -84.6796 356° North 426 490 30,000  Level FlightAware ADS-B
11:17PM 35.0524 -84.6898 356° North 426 490 30,000  Level FlightAware ADS-B
11:17PM 35.1136 -84.6958 355° North 427 491 30,000  Level FlightAware ADS-B
11:18PM 35.1729 -84.7016 355° North 427 491 30,000  Level FlightAware ADS-B
11:18PM 35.2328 -84.7075 355° North 427 491 30,000  Level FlightAware ADS-B
11:19PM 35.2920 -84.7132 356° North 427 491 30,000  Level FlightAware ADS-B
11:19PM 35.3516 -84.7191 355° North 426 490 30,000  Level FlightAware ADS-B
11:20PM 35.4119 -84.7250 355° North 426 490 30,000  Level FlightAware ADS-B
11:20PM 35.4716 -84.7309 355° North 425 489 30,000  Level FlightAware ADS-B
11:21PM 35.5316 -84.7369 355° North 424 488 30,000  Level FlightAware ADS-B
11:21PM 35.5903 -84.7428 355° North 423 487 30,000  Level FlightAware ADS-B
11:22PM 35.6496 -84.7487 355° North 423 487 30,000  Level FlightAware ADS-B
11:22PM 35.7120 -84.7550 355° North 422 486 30,000  Level FlightAware ADS-B
11:23PM 35.7720 -84.7611 355° North 421 484 30,000  Level FlightAware ADS-B
11:23PM 35.8353 -84.7676 355° North 421 484 30,000  Level FlightAware ADS-B
11:24PM 35.8930 -84.7737 355° North 419 482 30,000  Level FlightAware ADS-B
11:24PM 35.9516 -84.7797 355° North 419 482 30,000  Level FlightAware ADS-B
11:25PM 36.0113 -84.7859 355° North 419 482 30,000  Level FlightAware ADS-B
11:25PM 36.0703 -84.7918 355° North 419 482 30,000  Level FlightAware ADS-B
11:26PM 36.1445 -84.7993 355° North 419 482 30,000  Level FlightAware ADS-B
11:26PM 36.2039 -84.8053 355° North 419 482 30,000  Level FlightAware ADS-B
11:27PM 36.2979 -84.8147 355° North 420 483 30,000  Level FlightAware ADS-B
11:28PM 36.3591 -84.8208 355° North 421 484 30,000  Level FlightAware ADS-B
11:28PM 36.4180 -84.8266 355° North 422 486 30,000 -360 Level FlightAware ADS-B
11:29PM 36.5340 -84.8380 355° North 423 487 29,500 -660 Descending FlightAware ADS-B
11:30PM 36.5982 -84.8446 355° North 422 486 29,000 -720 Descending FlightAware ADS-B
11:31PM 36.7198 -84.8571 355° North 411 473 28,400 -600 Descending FlightAware ADS-B
11:31PM 36.7763 -84.8629 355° North 408 470 28,100 -600 Descending FlightAware ADS-B
11:32PM 36.8344 -84.8688 355° North 405 466 27,800 -1,200 Descending FlightAware ADS-B
11:32PM 36.8920 -84.8746 355° North 398 458 26,900 -1,920 Descending FlightAware ADS-B
11:33PM 36.9475 -84.8803 355° North 392 451 25,900 -2,220 Descending FlightAware ADS-B
11:33PM 37.0027 -84.8859 355° North 387 445 24,700 -2,220 Descending FlightAware ADS-B
11:34PM 37.0612 -84.8919 355° North 383 441 23,600 -2,100 Descending FlightAware ADS-B
11:34PM 37.1166 -84.8976 355° North 379 436 22,500 -2,100 Descending FlightAware ADS-B
11:35PM 37.1764 -84.9038 355° North 378 435 21,300 -2,160 Descending FlightAware ADS-B
11:36PM 37.2283 -84.9093 355° North 375 432 20,200 -2,160 Descending FlightAware ADS-B
11:36PM 37.2960 -84.9160 355° North 370 426 18,800 -2,280 Descending FlightAware
11:37PM 37.3670 -84.9240 355° North 371 427 17,100 -2,280 Descending FlightAware
11:37PM 37.3902 -84.9260 356° North 366 421 16,800 -2,040 Descending FlightAware ADS-B
11:38PM 37.5090 -84.9380 355° North 354 407 14,300 -1,680 Descending FlightAware
11:39PM 37.5900 -84.9470 355° North 349 402 13,300 -660 Descending FlightAware
11:40PM 37.6390 -84.9520 355° North 349 402 13,300  Level FlightAware
11:41PM 37.7070 -84.9600 355° North 349 402 13,300 -1,200 Level FlightAware
11:43PM 37.8110 -85.1680 302° West 303 349 10,100 -1,140 Descending FlightAware
11:44PM 37.8740 -85.2560 312° West 267 307 10,000 -480 Descending FlightAware
11:44PM 37.8980 -85.2900 312° West 259 298 9,400 -1,260 Descending FlightAware
11:44PM 37.9110 -85.3090 311° West 257 296 9,000 -1,560 Descending FlightAware
11:45PM 37.9350 -85.3420 313° West 255 293 8,200 -1,560 Descending FlightAware
11:46PM 37.9650 -85.3840 312° West 254 292 7,300 -1,440 Descending FlightAware
11:46PM 37.9870 -85.4140 313° West 244 281 6,700 -1,200 Descending FlightAware
11:46PM 37.9960 -85.4270 311° West 241 277 6,500 -1,440 Descending FlightAware
11:47PM 38.0160 -85.4550 312° West 240 276 5,800 -1,680 Descending FlightAware
11:47PM 38.0300 -85.4740 313° West 242 278 5,300 -960 Descending FlightAware
11:47PM 38.0500 -85.5020 312° West 245 282 5,100 -240 Descending FlightAware
11:48PM 38.0680 -85.5280 311° West 246 283 5,100  Level FlightAware
11:48PM 38.0900 -85.5590 312° West 246 283 5,100  Level FlightAware
11:49PM 38.1190 -85.5850 325° Northwest 263 303 5,100  Level FlightAware
11:49PM 38.1430 -85.5970 339° North 265 305 5,100 -120 Level FlightAware
11:50PM 38.1980 -85.6220 340° North 252 290 5,000 -420 Descending FlightAware
11:50PM 38.2290 -85.6340 343° North 243 280 4,600 -840 Descending FlightAware
11:51PM 38.2460 -85.6390 347° North 236 272 4,400 -720 Descending FlightAware
11:51PM 38.2760 -85.6500 344° North 237 273 4,100 -360 Descending FlightAware
11:52PM 38.3060 -85.6610 344° North 236 272 4,100  Level FlightAware
11:52PM 38.3190 -85.6650 346° North 236 272 4,100 -480 Level FlightAware
11:52PM 38.3310 -85.6720 335° Northwest 213 245 3,900 -1,020 Descending FlightAware
11:52PM 38.3400 -85.6870 307° West 195 224 3,600 -1,320 Descending FlightAware
11:53PM 38.3420 -85.7000 281° West 186 214 3,300 -780 Descending FlightAware
11:53PM 38.3390 -85.7290 262° West 164 189 3,100 -300 Descending FlightAware
11:53PM 38.3330 -85.7430 241° Southwest 153 176 3,100 -240 Level FlightAware
11:54PM 38.3240 -85.7480 204° Southwest 159 183 3,000 -600 Descending FlightAware
11:54PM 38.3040 -85.7560 197° South 168 193 2,700 -480 Descending FlightAware
11:54PM 38.2860 -85.7630 197° South 156 180 2,600 -480 Descending FlightAware
11:55PM 38.2740 -85.7610 173° South 162 186 2,400 -840 Descending FlightAware
11:55PM 38.2550 -85.7550 166° South 149 171 2,000 -780 Descending FlightAware
11:56PM 38.2390 -85.7490 164° South 125 144 1,700 -720 Descending FlightAware
11:56PM 38.2290 -85.7460 167° South 115 132 1,500 -720 Descending FlightAware
11:56PM 38.2160 -85.7410 163° South 114 131 1,200 -600 Descending FlightAware
11:57PM 38.2020 -85.7360 164° South 116 133 1,000 -540 Descending FlightAware
11:57PM 38.1870 -85.7310 165° South 117 135 700 -600 Descending FlightAware
11:57PM 38.1820 -85.7290 163° South 110 127 600 -180 Descending FlightAware
11:58PM 38.1710 -85.7250 164° South 110 127 600  Level FlightAware
11:59PM 38.1680 -85.7250 180° South 30 35 -960 Descending FlightAware